sensor_id;sensor_type;location;lat;lon;timestamp;P1;durP1;ratioP1;P2;durP2;ratioP2
72235;SDS011;60146;52.498;13.462;2023-02-01T00:01:07;11.17;;;1.70;;
72235;SDS011;60146;52.498;13.462;2023-02-01T00:03:32;12.47;;;1.60;;
72235;SDS011;60146;52.498;13.462;2023-02-01T00:05:58;14.43;;;2.40;;
72235;SDS011;60146;52.498;13.462;2023-02-01T00:08:24;9.53;;;1.60;;
72235;SDS011;60146;52.498;13.462;2023-02-01T00:10:57;17.47;;;1.90;;
72235;SDS011;60146;52.498;13.462;2023-02-01T00:13:22;9.90;;;2.03;;
72235;SDS011;60146;52.498;13.462;2023-02-01T00:15:47;14.27;;;2.00;;
72235;SDS011;60146;52.498;13.462;2023-02-01T00:18:13;12.93;;;2.37;;
72235;SDS011;60146;52.498;13.462;2023-02-01T00:20:38;11.73;;;1.77;;
72235;SDS011;60146;52.498;13.462;2023-02-01T00:23:03;10.97;;;1.90;;
72235;SDS011;60146;52.498;13.462;2023-02-01T00:25:29;16.70;;;1.90;;
72235;SDS011;60146;52.498;13.462;2023-02-01T00:27:54;9.13;;;2.10;;
72235;SDS011;60146;52.498;13.462;2023-02-01T00:30:21;14.03;;;2.17;;
72235;SDS011;60146;52.498;13.462;2023-02-01T00:32:47;13.67;;;2.33;;
72235;SDS011;60146;52.498;13.462;2023-02-01T00:35:12;15.07;;;2.07;;
72235;SDS011;60146;52.498;13.462;2023-02-01T00:37:37;19.47;;;2.40;;
72235;SDS011;60146;52.498;13.462;2023-02-01T00:40:02;8.03;;;1.80;;
72235;SDS011;60146;52.498;13.462;2023-02-01T00:42:28;14.40;;;1.67;;
72235;SDS011;60146;52.498;13.462;2023-02-01T00:44:53;11.30;;;2.00;;
72235;SDS011;60146;52.498;13.462;2023-02-01T00:47:19;13.20;;;2.00;;
72235;SDS011;60146;52.498;13.462;2023-02-01T00:49:44;15.70;;;1.97;;
72235;SDS011;60146;52.498;13.462;2023-02-01T00:52:10;10.33;;;1.50;;
72235;SDS011;60146;52.498;13.462;2023-02-01T00:54:35;17.20;;;2.23;;
72235;SDS011;60146;52.498;13.462;2023-02-01T00:57:02;6.17;;;1.20;;
72235;SDS011;60146;52.498;13.462;2023-02-01T00:59:27;11.73;;;1.60;;
72235;SDS011;60146;52.498;13.462;2023-02-01T01:01:52;10.10;;;1.60;;
72235;SDS011;60146;52.498;13.462;2023-02-01T01:04:17;10.93;;;1.50;;
72235;SDS011;60146;52.498;13.462;2023-02-01T01:06:43;13.13;;;2.10;;
72235;SDS011;60146;52.498;13.462;2023-02-01T01:09:09;12.93;;;1.37;;
72235;SDS011;60146;52.498;13.462;2023-02-01T01:11:35;10.63;;;1.43;;
72235;SDS011;60146;52.498;13.462;2023-02-01T01:14:01;15.53;;;1.70;;
72235;SDS011;60146;52.498;13.462;2023-02-01T01:16:27;10.63;;;1.30;;
72235;SDS011;60146;52.498;13.462;2023-02-01T01:18:52;9.23;;;1.33;;
72235;SDS011;60146;52.498;13.462;2023-02-01T01:21:18;11.80;;;1.00;;
72235;SDS011;60146;52.498;13.462;2023-02-01T01:23:44;8.50;;;1.30;;
72235;SDS011;60146;52.498;13.462;2023-02-01T01:26:14;12.00;;;1.37;;
72235;SDS011;60146;52.498;13.462;2023-02-01T01:28:39;9.70;;;1.55;;
72235;SDS011;60146;52.498;13.462;2023-02-01T01:31:07;8.50;;;1.50;;
72235;SDS011;60146;52.498;13.462;2023-02-01T01:33:32;9.43;;;1.20;;
72235;SDS011;60146;52.498;13.462;2023-02-01T01:35:58;6.97;;;1.37;;
72235;SDS011;60146;52.498;13.462;2023-02-01T01:38:23;8.10;;;1.97;;
72235;SDS011;60146;52.498;13.462;2023-02-01T01:40:48;14.40;;;2.37;;
72235;SDS011;60146;52.498;13.462;2023-02-01T01:43:18;8.37;;;1.83;;
72235;SDS011;60146;52.498;13.462;2023-02-01T01:45:44;10.47;;;1.83;;
72235;SDS011;60146;52.498;13.462;2023-02-01T01:48:12;12.33;;;1.90;;
72235;SDS011;60146;52.498;13.462;2023-02-01T01:50:49;9.23;;;1.80;;
72235;SDS011;60146;52.498;13.462;2023-02-01T01:53:16;11.37;;;1.53;;
72235;SDS011;60146;52.498;13.462;2023-02-01T01:55:43;9.63;;;1.37;;
72235;SDS011;60146;52.498;13.462;2023-02-01T01:58:13;12.40;;;1.87;;
72235;SDS011;60146;52.498;13.462;2023-02-01T02:00:40;14.13;;;1.87;;
72235;SDS011;60146;52.498;13.462;2023-02-01T02:03:11;11.37;;;1.40;;
72235;SDS011;60146;52.498;13.462;2023-02-01T02:05:39;10.63;;;1.40;;
72235;SDS011;60146;52.498;13.462;2023-02-01T02:08:04;6.83;;;1.07;;
72235;SDS011;60146;52.498;13.462;2023-02-01T02:10:29;13.00;;;2.57;;
72235;SDS011;60146;52.498;13.462;2023-02-01T02:13:14;11.23;;;1.70;;
72235;SDS011;60146;52.498;13.462;2023-02-01T02:18:36;9.43;;;1.43;;
72235;SDS011;60146;52.498;13.462;2023-02-01T02:34:11;8.97;;;1.57;;
72235;SDS011;60146;52.498;13.462;2023-02-01T02:39:07;14.40;;;1.87;;
72235;SDS011;60146;52.498;13.462;2023-02-01T02:47:16;12.03;;;1.80;;
72235;SDS011;60146;52.498;13.462;2023-02-01T02:49:59;5.07;;;1.60;;
72235;SDS011;60146;52.498;13.462;2023-02-01T02:52:48;14.33;;;1.70;;
72235;SDS011;60146;52.498;13.462;2023-02-01T02:55:35;10.07;;;1.80;;
72235;SDS011;60146;52.498;13.462;2023-02-01T02:58:03;12.97;;;1.83;;
72235;SDS011;60146;52.498;13.462;2023-02-01T03:00:48;13.97;;;2.00;;
72235;SDS011;60146;52.498;13.462;2023-02-01T03:03:36;21.27;;;2.47;;
72235;SDS011;60146;52.498;13.462;2023-02-01T03:06:22;13.57;;;2.00;;
72235;SDS011;60146;52.498;13.462;2023-02-01T03:08:47;16.00;;;2.10;;
72235;SDS011;60146;52.498;13.462;2023-02-01T03:11:13;9.27;;;1.63;;
72235;SDS011;60146;52.498;13.462;2023-02-01T03:13:49;13.83;;;1.70;;
72235;SDS011;60146;52.498;13.462;2023-02-01T03:16:32;9.83;;;2.13;;
72235;SDS011;60146;52.498;13.462;2023-02-01T03:21:49;10.97;;;1.93;;
72235;SDS011;60146;52.498;13.462;2023-02-01T03:24:16;14.03;;;2.10;;
72235;SDS011;60146;52.498;13.462;2023-02-01T03:26:45;11.73;;;1.60;;
72235;SDS011;60146;52.498;13.462;2023-02-01T03:29:14;12.40;;;2.10;;
72235;SDS011;60146;52.498;13.462;2023-02-01T03:31:41;13.93;;;1.80;;
72235;SDS011;60146;52.498;13.462;2023-02-01T03:34:06;10.00;;;2.20;;
72235;SDS011;60146;52.498;13.462;2023-02-01T03:39:20;11.53;;;1.60;;
72235;SDS011;60146;52.498;13.462;2023-02-01T03:41:53;14.47;;;2.30;;
72235;SDS011;60146;52.498;13.462;2023-02-01T03:44:36;6.43;;;1.17;;
72235;SDS011;60146;52.498;13.462;2023-02-01T03:47:21;14.83;;;1.50;;
72235;SDS011;60146;52.498;13.462;2023-02-01T03:52:27;12.23;;;1.60;;
72235;SDS011;60146;52.498;13.462;2023-02-01T03:54:53;11.37;;;1.70;;
72235;SDS011;60146;52.498;13.462;2023-02-01T03:57:22;12.40;;;1.50;;
72235;SDS011;60146;52.498;13.462;2023-02-01T03:59:48;8.80;;;1.50;;
72235;SDS011;60146;52.498;13.462;2023-02-01T04:02:14;11.23;;;1.60;;
72235;SDS011;60146;52.498;13.462;2023-02-01T04:04:39;15.63;;;2.20;;
72235;SDS011;60146;52.498;13.462;2023-02-01T04:07:05;11.37;;;1.90;;
72235;SDS011;60146;52.498;13.462;2023-02-01T04:09:30;15.03;;;2.00;;
72235;SDS011;60146;52.498;13.462;2023-02-01T04:11:55;18.07;;;2.13;;
72235;SDS011;60146;52.498;13.462;2023-02-01T04:14:20;12.50;;;2.13;;
72235;SDS011;60146;52.498;13.462;2023-02-01T04:16:45;17.47;;;2.07;;
72235;SDS011;60146;52.498;13.462;2023-02-01T04:19:11;10.73;;;1.93;;
72235;SDS011;60146;52.498;13.462;2023-02-01T04:21:36;13.37;;;2.03;;
72235;SDS011;60146;52.498;13.462;2023-02-01T04:24:01;15.70;;;1.57;;
72235;SDS011;60146;52.498;13.462;2023-02-01T04:26:26;11.53;;;1.90;;
72235;SDS011;60146;52.498;13.462;2023-02-01T04:28:52;20.23;;;1.40;;
72235;SDS011;60146;52.498;13.462;2023-02-01T04:31:17;12.63;;;1.83;;
72235;SDS011;60146;52.498;13.462;2023-02-01T04:33:50;14.23;;;1.90;;
72235;SDS011;60146;52.498;13.462;2023-02-01T04:36:15;16.70;;;2.00;;
72235;SDS011;60146;52.498;13.462;2023-02-01T04:38:40;16.33;;;2.30;;
72235;SDS011;60146;52.498;13.462;2023-02-01T04:41:05;17.03;;;1.60;;
72235;SDS011;60146;52.498;13.462;2023-02-01T04:43:30;16.27;;;1.97;;
72235;SDS011;60146;52.498;13.462;2023-02-01T04:45:56;15.33;;;2.67;;
72235;SDS011;60146;52.498;13.462;2023-02-01T04:48:21;7.70;;;1.47;;
72235;SDS011;60146;52.498;13.462;2023-02-01T04:50:46;19.83;;;3.33;;
72235;SDS011;60146;52.498;13.462;2023-02-01T04:53:13;12.43;;;1.63;;
72235;SDS011;60146;52.498;13.462;2023-02-01T04:55:39;14.87;;;2.23;;
72235;SDS011;60146;52.498;13.462;2023-02-01T04:58:04;17.10;;;2.17;;
72235;SDS011;60146;52.498;13.462;2023-02-01T05:00:29;15.37;;;2.10;;
72235;SDS011;60146;52.498;13.462;2023-02-01T05:02:55;13.60;;;1.90;;
72235;SDS011;60146;52.498;13.462;2023-02-01T05:05:20;12.80;;;1.57;;
72235;SDS011;60146;52.498;13.462;2023-02-01T05:07:45;10.50;;;1.60;;
72235;SDS011;60146;52.498;13.462;2023-02-01T05:10:11;21.87;;;2.13;;
72235;SDS011;60146;52.498;13.462;2023-02-01T05:12:36;8.23;;;1.20;;
72235;SDS011;60146;52.498;13.462;2023-02-01T05:15:19;11.23;;;2.13;;
72235;SDS011;60146;52.498;13.462;2023-02-01T05:17:45;8.03;;;1.53;;
72235;SDS011;60146;52.498;13.462;2023-02-01T05:20:10;11.30;;;2.03;;
72235;SDS011;60146;52.498;13.462;2023-02-01T05:22:35;17.87;;;2.30;;
72235;SDS011;60146;52.498;13.462;2023-02-01T05:25:00;11.63;;;2.07;;
72235;SDS011;60146;52.498;13.462;2023-02-01T05:27:26;19.87;;;2.30;;
72235;SDS011;60146;52.498;13.462;2023-02-01T05:29:53;13.43;;;2.50;;
72235;SDS011;60146;52.498;13.462;2023-02-01T05:32:18;13.57;;;2.17;;
72235;SDS011;60146;52.498;13.462;2023-02-01T05:34:43;12.00;;;2.37;;
72235;SDS011;60146;52.498;13.462;2023-02-01T05:37:09;11.20;;;2.10;;
72235;SDS011;60146;52.498;13.462;2023-02-01T05:39:34;11.57;;;1.70;;
72235;SDS011;60146;52.498;13.462;2023-02-01T05:41:59;16.60;;;2.30;;
72235;SDS011;60146;52.498;13.462;2023-02-01T05:44:24;10.83;;;1.83;;
72235;SDS011;60146;52.498;13.462;2023-02-01T05:46:49;11.07;;;1.70;;
72235;SDS011;60146;52.498;13.462;2023-02-01T05:49:17;10.23;;;2.03;;
72235;SDS011;60146;52.498;13.462;2023-02-01T05:51:42;13.37;;;2.27;;
72235;SDS011;60146;52.498;13.462;2023-02-01T05:54:08;13.43;;;2.83;;
72235;SDS011;60146;52.498;13.462;2023-02-01T05:56:33;12.53;;;2.00;;
72235;SDS011;60146;52.498;13.462;2023-02-01T05:58:58;13.07;;;1.40;;
72235;SDS011;60146;52.498;13.462;2023-02-01T06:01:23;13.23;;;1.67;;
72235;SDS011;60146;52.498;13.462;2023-02-01T06:03:49;22.13;;;2.43;;
72235;SDS011;60146;52.498;13.462;2023-02-01T06:06:14;15.50;;;2.30;;
72235;SDS011;60146;52.498;13.462;2023-02-01T06:08:39;11.17;;;2.27;;
72235;SDS011;60146;52.498;13.462;2023-02-01T06:11:05;14.93;;;2.17;;
72235;SDS011;60146;52.498;13.462;2023-02-01T06:13:30;12.73;;;2.40;;
72235;SDS011;60146;52.498;13.462;2023-02-01T06:15:56;14.10;;;2.00;;
72235;SDS011;60146;52.498;13.462;2023-02-01T06:18:22;14.63;;;1.80;;
72235;SDS011;60146;52.498;13.462;2023-02-01T06:20:57;11.17;;;2.00;;
72235;SDS011;60146;52.498;13.462;2023-02-01T06:23:22;13.93;;;2.33;;
72235;SDS011;60146;52.498;13.462;2023-02-01T06:25:49;10.60;;;1.87;;
72235;SDS011;60146;52.498;13.462;2023-02-01T06:28:14;15.27;;;1.90;;
72235;SDS011;60146;52.498;13.462;2023-02-01T06:30:39;8.43;;;1.97;;
72235;SDS011;60146;52.498;13.462;2023-02-01T06:33:08;13.70;;;2.10;;
72235;SDS011;60146;52.498;13.462;2023-02-01T06:35:33;14.67;;;2.23;;
72235;SDS011;60146;52.498;13.462;2023-02-01T06:37:58;12.07;;;1.93;;
72235;SDS011;60146;52.498;13.462;2023-02-01T06:40:23;9.57;;;1.87;;
72235;SDS011;60146;52.498;13.462;2023-02-01T06:42:48;9.03;;;1.53;;
72235;SDS011;60146;52.498;13.462;2023-02-01T06:45:14;11.77;;;2.07;;
72235;SDS011;60146;52.498;13.462;2023-02-01T06:47:39;15.30;;;2.47;;
72235;SDS011;60146;52.498;13.462;2023-02-01T06:50:05;18.13;;;2.57;;
72235;SDS011;60146;52.498;13.462;2023-02-01T06:52:30;17.93;;;2.10;;
72235;SDS011;60146;52.498;13.462;2023-02-01T06:54:55;6.63;;;1.80;;
72235;SDS011;60146;52.498;13.462;2023-02-01T06:57:21;19.83;;;2.57;;
72235;SDS011;60146;52.498;13.462;2023-02-01T06:59:46;13.47;;;2.53;;
72235;SDS011;60146;52.498;13.462;2023-02-01T07:02:11;13.13;;;1.97;;
72235;SDS011;60146;52.498;13.462;2023-02-01T07:04:36;11.10;;;1.70;;
72235;SDS011;60146;52.498;13.462;2023-02-01T07:07:02;13.57;;;2.03;;
72235;SDS011;60146;52.498;13.462;2023-02-01T07:09:27;12.30;;;1.97;;
72235;SDS011;60146;52.498;13.462;2023-02-01T07:11:52;13.53;;;2.20;;
72235;SDS011;60146;52.498;13.462;2023-02-01T07:14:17;9.93;;;2.10;;
72235;SDS011;60146;52.498;13.462;2023-02-01T07:16:42;10.53;;;1.97;;
72235;SDS011;60146;52.498;13.462;2023-02-01T07:19:08;12.90;;;2.20;;
72235;SDS011;60146;52.498;13.462;2023-02-01T07:21:33;10.17;;;1.80;;
72235;SDS011;60146;52.498;13.462;2023-02-01T07:23:58;13.87;;;2.13;;
72235;SDS011;60146;52.498;13.462;2023-02-01T07:26:23;8.73;;;1.70;;
72235;SDS011;60146;52.498;13.462;2023-02-01T07:28:49;10.67;;;2.53;;
72235;SDS011;60146;52.498;13.462;2023-02-01T07:31:15;17.33;;;2.30;;
72235;SDS011;60146;52.498;13.462;2023-02-01T07:33:43;8.07;;;2.03;;
72235;SDS011;60146;52.498;13.462;2023-02-01T07:36:10;13.93;;;2.30;;
72235;SDS011;60146;52.498;13.462;2023-02-01T07:38:36;15.43;;;2.37;;
72235;SDS011;60146;52.498;13.462;2023-02-01T07:41:01;9.60;;;2.37;;
72235;SDS011;60146;52.498;13.462;2023-02-01T07:43:30;12.33;;;1.90;;
72235;SDS011;60146;52.498;13.462;2023-02-01T07:45:56;9.40;;;1.83;;
72235;SDS011;60146;52.498;13.462;2023-02-01T07:48:22;16.20;;;2.70;;
72235;SDS011;60146;52.498;13.462;2023-02-01T07:50:48;9.37;;;2.00;;
72235;SDS011;60146;52.498;13.462;2023-02-01T07:53:13;11.27;;;2.00;;
72235;SDS011;60146;52.498;13.462;2023-02-01T07:55:39;8.53;;;1.80;;
72235;SDS011;60146;52.498;13.462;2023-02-01T07:58:08;7.32;;;1.42;;
72235;SDS011;60146;52.498;13.462;2023-02-01T08:00:33;12.10;;;1.83;;
72235;SDS011;60146;52.498;13.462;2023-02-01T08:03:17;11.50;;;2.23;;
72235;SDS011;60146;52.498;13.462;2023-02-01T08:05:43;11.93;;;2.23;;
72235;SDS011;60146;52.498;13.462;2023-02-01T08:08:08;11.10;;;2.27;;
72235;SDS011;60146;52.498;13.462;2023-02-01T08:10:39;12.37;;;2.43;;
72235;SDS011;60146;52.498;13.462;2023-02-01T08:13:05;10.77;;;2.20;;
72235;SDS011;60146;52.498;13.462;2023-02-01T08:15:30;7.37;;;2.10;;
72235;SDS011;60146;52.498;13.462;2023-02-01T08:17:55;16.43;;;2.63;;
72235;SDS011;60146;52.498;13.462;2023-02-01T08:20:21;11.10;;;2.73;;
72235;SDS011;60146;52.498;13.462;2023-02-01T08:22:51;13.43;;;2.27;;
72235;SDS011;60146;52.498;13.462;2023-02-01T08:25:16;7.23;;;2.30;;
72235;SDS011;60146;52.498;13.462;2023-02-01T08:27:42;10.30;;;2.63;;
72235;SDS011;60146;52.498;13.462;2023-02-01T08:30:07;8.43;;;2.27;;
72235;SDS011;60146;52.498;13.462;2023-02-01T08:32:33;7.97;;;2.40;;
72235;SDS011;60146;52.498;13.462;2023-02-01T08:34:58;9.63;;;2.50;;
72235;SDS011;60146;52.498;13.462;2023-02-01T08:37:23;9.93;;;2.40;;
72235;SDS011;60146;52.498;13.462;2023-02-01T08:39:49;7.33;;;2.23;;
72235;SDS011;60146;52.498;13.462;2023-02-01T08:42:16;8.97;;;2.30;;
72235;SDS011;60146;52.498;13.462;2023-02-01T08:45:02;10.63;;;2.30;;
72235;SDS011;60146;52.498;13.462;2023-02-01T08:47:29;10.67;;;2.50;;
72235;SDS011;60146;52.498;13.462;2023-02-01T08:49:54;12.00;;;2.93;;
72235;SDS011;60146;52.498;13.462;2023-02-01T08:52:23;9.20;;;2.53;;
72235;SDS011;60146;52.498;13.462;2023-02-01T08:54:48;6.13;;;2.50;;
72235;SDS011;60146;52.498;13.462;2023-02-01T08:57:13;10.63;;;2.60;;
72235;SDS011;60146;52.498;13.462;2023-02-01T08:59:38;6.87;;;2.20;;
72235;SDS011;60146;52.498;13.462;2023-02-01T09:02:04;8.37;;;2.17;;
72235;SDS011;60146;52.498;13.462;2023-02-01T09:04:29;5.33;;;2.13;;
72235;SDS011;60146;52.498;13.462;2023-02-01T09:06:54;7.20;;;2.20;;
72235;SDS011;60146;52.498;13.462;2023-02-01T09:09:23;7.07;;;1.77;;
72235;SDS011;60146;52.498;13.462;2023-02-01T09:11:48;4.77;;;1.60;;
72235;SDS011;60146;52.498;13.462;2023-02-01T09:14:15;4.23;;;1.60;;
72235;SDS011;60146;52.498;13.462;2023-02-01T09:16:40;3.97;;;1.50;;
72235;SDS011;60146;52.498;13.462;2023-02-01T09:19:05;7.97;;;1.83;;
72235;SDS011;60146;52.498;13.462;2023-02-01T09:21:30;4.87;;;1.50;;
72235;SDS011;60146;52.498;13.462;2023-02-01T09:23:56;5.97;;;1.93;;
72235;SDS011;60146;52.498;13.462;2023-02-01T09:26:21;4.90;;;1.37;;
72235;SDS011;60146;52.498;13.462;2023-02-01T09:28:46;5.17;;;1.43;;
72235;SDS011;60146;52.498;13.462;2023-02-01T09:31:12;3.17;;;1.10;;
72235;SDS011;60146;52.498;13.462;2023-02-01T09:33:37;3.17;;;1.30;;
72235;SDS011;60146;52.498;13.462;2023-02-01T09:36:03;6.53;;;1.67;;
72235;SDS011;60146;52.498;13.462;2023-02-01T09:38:29;3.03;;;1.30;;
72235;SDS011;60146;52.498;13.462;2023-02-01T09:40:55;6.10;;;1.20;;
72235;SDS011;60146;52.498;13.462;2023-02-01T09:48:40;3.60;;;1.50;;
72235;SDS011;60146;52.498;13.462;2023-02-01T09:51:11;1.47;;;0.90;;
72235;SDS011;60146;52.498;13.462;2023-02-01T09:53:38;6.45;;;1.35;;
72235;SDS011;60146;52.498;13.462;2023-02-01T09:56:06;4.67;;;1.33;;
72235;SDS011;60146;52.498;13.462;2023-02-01T09:58:33;4.60;;;1.40;;
72235;SDS011;60146;52.498;13.462;2023-02-01T10:01:01;4.40;;;1.57;;
72235;SDS011;60146;52.498;13.462;2023-02-01T10:03:28;5.20;;;1.20;;
72235;SDS011;60146;52.498;13.462;2023-02-01T10:13:58;3.83;;;1.00;;
72235;SDS011;60146;52.498;13.462;2023-02-01T10:16:40;3.87;;;0.77;;
72235;SDS011;60146;52.498;13.462;2023-02-01T10:26:55;1.50;;;0.80;;
72235;SDS011;60146;52.498;13.462;2023-02-01T10:29:22;5.37;;;1.30;;
72235;SDS011;60146;52.498;13.462;2023-02-01T10:31:49;5.13;;;1.10;;
72235;SDS011;60146;52.498;13.462;2023-02-01T10:34:17;3.70;;;1.43;;
72235;SDS011;60146;52.498;13.462;2023-02-01T10:39:14;5.40;;;1.20;;
72235;SDS011;60146;52.498;13.462;2023-02-01T10:41:40;5.17;;;1.20;;
72235;SDS011;60146;52.498;13.462;2023-02-01T10:44:13;2.53;;;1.00;;
72235;SDS011;60146;52.498;13.462;2023-02-01T10:46:39;3.80;;;0.97;;
72235;SDS011;60146;52.498;13.462;2023-02-01T10:49:04;5.60;;;1.50;;
72235;SDS011;60146;52.498;13.462;2023-02-01T10:54:19;6.33;;;1.20;;
72235;SDS011;60146;52.498;13.462;2023-02-01T10:56:45;3.63;;;1.50;;
72235;SDS011;60146;52.498;13.462;2023-02-01T10:59:21;5.17;;;1.23;;
72235;SDS011;60146;52.498;13.462;2023-02-01T11:01:48;4.33;;;1.20;;
72235;SDS011;60146;52.498;13.462;2023-02-01T11:04:14;8.77;;;1.60;;
72235;SDS011;60146;52.498;13.462;2023-02-01T11:06:41;3.93;;;1.03;;
72235;SDS011;60146;52.498;13.462;2023-02-01T11:11:32;3.83;;;1.50;;
72235;SDS011;60146;52.498;13.462;2023-02-01T11:13:58;5.43;;;1.37;;
72235;SDS011;60146;52.498;13.462;2023-02-01T11:16:58;3.90;;;1.27;;
72235;SDS011;60146;52.498;13.462;2023-02-01T11:19:16;6.03;;;1.03;;
72235;SDS011;60146;52.498;13.462;2023-02-01T11:21:42;3.90;;;1.40;;
72235;SDS011;60146;52.498;13.462;2023-02-01T11:24:16;4.00;;;1.00;;
72235;SDS011;60146;52.498;13.462;2023-02-01T11:26:46;7.93;;;1.40;;
72235;SDS011;60146;52.498;13.462;2023-02-01T11:29:12;5.57;;;1.40;;
72235;SDS011;60146;52.498;13.462;2023-02-01T11:31:39;6.27;;;1.20;;
72235;SDS011;60146;52.498;13.462;2023-02-01T11:34:12;3.90;;;1.10;;
72235;SDS011;60146;52.498;13.462;2023-02-01T11:36:38;6.23;;;1.20;;
72235;SDS011;60146;52.498;13.462;2023-02-01T11:46:54;6.00;;;1.10;;
72235;SDS011;60146;52.498;13.462;2023-02-01T11:49:23;5.63;;;1.27;;
72235;SDS011;60146;52.498;13.462;2023-02-01T12:00:25;5.23;;;1.23;;
72235;SDS011;60146;52.498;13.462;2023-02-01T12:10:24;5.07;;;1.20;;
72235;SDS011;60146;52.498;13.462;2023-02-01T12:15:32;6.60;;;1.40;;
72235;SDS011;60146;52.498;13.462;2023-02-01T12:18:05;8.93;;;1.13;;
72235;SDS011;60146;52.498;13.462;2023-02-01T12:20:48;7.77;;;1.13;;
72235;SDS011;60146;52.498;13.462;2023-02-01T12:29:00;3.67;;;1.13;;
72235;SDS011;60146;52.498;13.462;2023-02-01T12:31:31;7.13;;;1.40;;
72235;SDS011;60146;52.498;13.462;2023-02-01T12:36:36;7.83;;;1.40;;
72235;SDS011;60146;52.498;13.462;2023-02-01T12:40:07;7.73;;;1.20;;
72235;SDS011;60146;52.498;13.462;2023-02-01T12:44:46;6.93;;;1.30;;
72235;SDS011;60146;52.498;13.462;2023-02-01T12:47:59;10.23;;;1.40;;
72235;SDS011;60146;52.498;13.462;2023-02-01T12:50:06;7.03;;;1.80;;
72235;SDS011;60146;52.498;13.462;2023-02-01T12:52:39;5.83;;;1.20;;
72235;SDS011;60146;52.498;13.462;2023-02-01T12:57:34;3.93;;;1.20;;
72235;SDS011;60146;52.498;13.462;2023-02-01T13:00:13;17.67;;;2.90;;
72235;SDS011;60146;52.498;13.462;2023-02-01T13:02:50;11.37;;;1.60;;
72235;SDS011;60146;52.498;13.462;2023-02-01T13:10:35;10.33;;;1.37;;
72235;SDS011;60146;52.498;13.462;2023-02-01T13:13:20;12.70;;;1.83;;
72235;SDS011;60146;52.498;13.462;2023-02-01T13:15:58;10.03;;;1.57;;
72235;SDS011;60146;52.498;13.462;2023-02-01T13:18:30;7.63;;;1.50;;
72235;SDS011;60146;52.498;13.462;2023-02-01T13:21:00;5.90;;;1.07;;
72235;SDS011;60146;52.498;13.462;2023-02-01T13:23:30;5.77;;;1.07;;
72235;SDS011;60146;52.498;13.462;2023-02-01T13:25:57;10.48;;;1.42;;
72235;SDS011;60146;52.498;13.462;2023-02-01T13:28:28;8.27;;;1.93;;
72235;SDS011;60146;52.498;13.462;2023-02-01T13:33:49;5.80;;;1.43;;
72235;SDS011;60146;52.498;13.462;2023-02-01T13:36:18;8.67;;;1.30;;
72235;SDS011;60146;52.498;13.462;2023-02-01T13:43:54;5.15;;;1.30;;
72235;SDS011;60146;52.498;13.462;2023-02-01T13:46:20;8.50;;;1.20;;
72235;SDS011;60146;52.498;13.462;2023-02-01T13:51:10;4.83;;;1.53;;
72235;SDS011;60146;52.498;13.462;2023-02-01T13:53:37;7.50;;;1.30;;
72235;SDS011;60146;52.498;13.462;2023-02-01T13:56:20;4.03;;;1.20;;
72235;SDS011;60146;52.498;13.462;2023-02-01T13:58:47;9.00;;;1.80;;
72235;SDS011;60146;52.498;13.462;2023-02-01T14:11:41;10.57;;;1.50;;
72235;SDS011;60146;52.498;13.462;2023-02-01T14:16:42;6.83;;;1.60;;
72235;SDS011;60146;52.498;13.462;2023-02-01T14:19:08;5.63;;;1.37;;
72235;SDS011;60146;52.498;13.462;2023-02-01T14:21:34;5.90;;;1.30;;
72235;SDS011;60146;52.498;13.462;2023-02-01T14:52:31;4.27;;;1.40;;
72235;SDS011;60146;52.498;13.462;2023-02-01T14:54:59;4.63;;;1.50;;
72235;SDS011;60146;52.498;13.462;2023-02-01T14:57:26;8.47;;;1.87;;
72235;SDS011;60146;52.498;13.462;2023-02-01T14:59:54;10.23;;;1.70;;
72235;SDS011;60146;52.498;13.462;2023-02-01T15:02:23;7.30;;;1.47;;
72235;SDS011;60146;52.498;13.462;2023-02-01T15:04:54;8.20;;;1.67;;
72235;SDS011;60146;52.498;13.462;2023-02-01T15:07:19;3.20;;;1.10;;
72235;SDS011;60146;52.498;13.462;2023-02-01T15:09:46;5.17;;;1.30;;
72235;SDS011;60146;52.498;13.462;2023-02-01T15:14:39;4.67;;;1.07;;
72235;SDS011;60146;52.498;13.462;2023-02-01T15:19:53;0.90;;;0.70;;
72235;SDS011;60146;52.498;13.462;2023-02-01T15:22:19;3.90;;;1.30;;
72235;SDS011;60146;52.498;13.462;2023-02-01T15:24:51;4.63;;;1.00;;
72235;SDS011;60146;52.498;13.462;2023-02-01T15:27:16;4.17;;;1.10;;
72235;SDS011;60146;52.498;13.462;2023-02-01T15:29:42;2.80;;;1.10;;
72235;SDS011;60146;52.498;13.462;2023-02-01T15:32:15;2.73;;;1.10;;
72235;SDS011;60146;52.498;13.462;2023-02-01T15:34:52;5.00;;;1.30;;
72235;SDS011;60146;52.498;13.462;2023-02-01T15:37:20;5.50;;;0.90;;
72235;SDS011;60146;52.498;13.462;2023-02-01T15:40:03;3.40;;;1.00;;
72235;SDS011;60146;52.498;13.462;2023-02-01T15:42:28;3.60;;;1.00;;
72235;SDS011;60146;52.498;13.462;2023-02-01T15:44:54;3.63;;;1.27;;
72235;SDS011;60146;52.498;13.462;2023-02-01T15:47:20;3.70;;;1.20;;
72235;SDS011;60146;52.498;13.462;2023-02-01T15:49:50;5.20;;;1.40;;
72235;SDS011;60146;52.498;13.462;2023-02-01T15:52:19;3.80;;;1.30;;
72235;SDS011;60146;52.498;13.462;2023-02-01T15:54:46;4.73;;;1.03;;
72235;SDS011;60146;52.498;13.462;2023-02-01T15:57:18;5.03;;;1.20;;
72235;SDS011;60146;52.498;13.462;2023-02-01T15:59:45;5.60;;;1.80;;
72235;SDS011;60146;52.498;13.462;2023-02-01T16:02:26;2.50;;;0.93;;
72235;SDS011;60146;52.498;13.462;2023-02-01T16:04:52;1.70;;;0.80;;
72235;SDS011;60146;52.498;13.462;2023-02-01T16:07:26;3.53;;;0.70;;
72235;SDS011;60146;52.498;13.462;2023-02-01T16:09:53;1.60;;;0.70;;
72235;SDS011;60146;52.498;13.462;2023-02-01T16:13:04;1.17;;;0.60;;
72235;SDS011;60146;52.498;13.462;2023-02-01T16:15:07;1.40;;;0.70;;
72235;SDS011;60146;52.498;13.462;2023-02-01T16:17:32;4.50;;;0.80;;
72235;SDS011;60146;52.498;13.462;2023-02-01T16:19:57;3.73;;;1.30;;
72235;SDS011;60146;52.498;13.462;2023-02-01T16:22:23;1.90;;;0.70;;
72235;SDS011;60146;52.498;13.462;2023-02-01T16:24:52;1.27;;;1.00;;
72235;SDS011;60146;52.498;13.462;2023-02-01T16:27:17;2.50;;;0.90;;
72235;SDS011;60146;52.498;13.462;2023-02-01T16:29:42;1.37;;;0.70;;
72235;SDS011;60146;52.498;13.462;2023-02-01T16:32:14;2.90;;;0.83;;
72235;SDS011;60146;52.498;13.462;2023-02-01T16:34:41;1.20;;;0.70;;
72235;SDS011;60146;52.498;13.462;2023-02-01T16:37:09;2.83;;;0.80;;
72235;SDS011;60146;52.498;13.462;2023-02-01T16:39:37;2.13;;;1.10;;
72235;SDS011;60146;52.498;13.462;2023-02-01T16:42:08;2.10;;;1.10;;
72235;SDS011;60146;52.498;13.462;2023-02-01T16:44:33;1.30;;;0.70;;
72235;SDS011;60146;52.498;13.462;2023-02-01T16:46:59;2.10;;;0.77;;
72235;SDS011;60146;52.498;13.462;2023-02-01T16:49:24;1.83;;;0.50;;
72235;SDS011;60146;52.498;13.462;2023-02-01T16:52:00;1.23;;;0.50;;
72235;SDS011;60146;52.498;13.462;2023-02-01T16:54:25;1.30;;;0.73;;
72235;SDS011;60146;52.498;13.462;2023-02-01T16:56:51;0.40;;;0.40;;
72235;SDS011;60146;52.498;13.462;2023-02-01T16:59:16;1.13;;;0.47;;
72235;SDS011;60146;52.498;13.462;2023-02-01T17:01:42;1.10;;;0.73;;
72235;SDS011;60146;52.498;13.462;2023-02-01T17:04:08;2.13;;;0.83;;
72235;SDS011;60146;52.498;13.462;2023-02-01T17:06:38;0.80;;;0.50;;
72235;SDS011;60146;52.498;13.462;2023-02-01T17:09:03;2.95;;;1.50;;
72235;SDS011;60146;52.498;13.462;2023-02-01T17:11:29;2.30;;;0.70;;
72235;SDS011;60146;52.498;13.462;2023-02-01T17:13:56;4.37;;;0.90;;
72235;SDS011;60146;52.498;13.462;2023-02-01T17:16:23;1.67;;;0.70;;